Time;durP1;ratioP1;P1;durP2;ratioP2;P2;SDS_P1;SDS_P2;PMS_P1;PMS_P2;Temp;Humidity;BMP_temperature;BMP_pressure;BME280_temperature;BME280_humidity;BME280_pressure;Samples;Min_cycle;Max_cycle;Signal;HPM_P1;HPM_P2
2022/12/26 00:01:33;;;;;;;4.85;2.00;;;;;;;6.23;100.00;95604.50;4946757;29;20433;-75
2022/12/26 00:03:59;;;;;;;2.33;1.67;;;;;;;6.09;100.00;95605.06;4955983;28;20103;-75
2022/12/26 00:06:27;;;;;;;3.30;1.80;;;;;;;6.04;100.00;95603.16;4953248;28;20043;-75
2022/12/26 00:08:54;;;;;;;2.92;1.60;;;;;;;5.76;100.00;95611.81;4954832;28;20081;-75
2022/12/26 00:11:21;;;;;;;3.45;1.50;;;;;;;5.66;100.00;95599.38;4954059;28;20055;-75
2022/12/26 00:13:51;;;;;;;2.70;1.60;;;;;;;5.69;100.00;95596.31;4955482;28;20047;-75
2022/12/26 00:16:19;;;;;;;2.65;1.40;;;;;;;5.71;100.00;95608.09;4941319;28;20065;-75
2022/12/26 00:18:45;;;;;;;1.98;1.40;;;;;;;5.84;100.00;95612.22;4955408;28;20047;-75
2022/12/26 00:21:13;;;;;;;3.05;1.52;;;;;;;5.73;100.00;95611.28;4952284;28;20054;-75
2022/12/26 00:23:39;;;;;;;2.60;1.60;;;;;;;5.31;100.00;95608.16;4960619;28;20051;-75
2022/12/26 00:26:11;;;;;;;2.92;1.50;;;;;;;4.96;100.00;95602.03;4953749;28;20039;-75
2022/12/26 00:28:37;;;;;;;4.80;1.83;;;;;;;5.25;100.00;95609.88;4943714;28;20489;-75
2022/12/26 00:31:14;;;;;;;2.45;1.60;;;;;;;5.08;100.00;95601.22;4937637;29;20559;-75
2022/12/26 00:33:40;;;;;;;2.60;1.55;;;;;;;4.91;100.00;95609.75;4955787;28;20051;-75
2022/12/26 00:36:09;;;;;;;2.05;1.38;;;;;;;4.59;100.00;95612.75;4953879;28;20059;-75
2022/12/26 00:38:36;;;;;;;1.90;1.38;;;;;;;4.26;100.00;95614.13;4950252;28;20039;-75
2022/12/26 00:41:03;;;;;;;3.42;1.60;;;;;;;4.19;100.00;95613.44;4944643;28;20044;-75
2022/12/26 00:43:28;;;;;;;4.18;1.73;;;;;;;4.22;100.00;95613.00;4940420;29;20459;-74
2022/12/26 00:45:54;;;;;;;2.05;1.48;;;;;;;4.84;100.00;95606.47;4953911;28;20437;-75
2022/12/26 00:48:20;;;;;;;2.15;1.40;;;;;;;4.89;100.00;95617.03;4940795;28;20043;-74
2022/12/26 00:50:46;;;;;;;3.95;1.88;;;;;;;4.37;100.00;95614.34;4955403;28;20043;-75
2022/12/26 00:53:11;;;;;;;3.28;1.60;;;;;;;4.62;100.00;95612.31;4952101;29;20054;-75
2022/12/26 00:55:37;;;;;;;2.80;1.80;;;;;;;4.37;100.00;95614.34;4954687;28;20465;-75
2022/12/26 00:58:02;;;;;;;2.63;1.70;;;;;;;4.01;100.00;95605.72;4945975;28;20055;-74
2022/12/26 01:00:28;;;;;;;3.45;1.83;;;;;;;3.82;100.00;95603.22;4953620;28;20047;-75
2022/12/26 01:02:54;;;;;;;2.75;1.60;;;;;;;3.86;100.00;95625.19;4952522;29;20043;-75
2022/12/26 01:05:19;;;;;;;1.95;1.30;;;;;;;3.76;100.00;95619.72;4958133;28;20047;-75
2022/12/26 01:07:45;;;;;;;2.67;1.58;;;;;;;3.69;100.00;95621.66;4950451;28;20043;-75
2022/12/26 01:10:12;;;;;;;3.05;1.60;;;;;;;3.44;100.00;95620.00;4954482;28;20047;-74
2022/12/26 01:12:38;;;;;;;1.98;1.48;;;;;;;3.46;100.00;95625.75;4953258;28;20046;-75
2022/12/26 01:15:05;;;;;;;3.33;1.80;;;;;;;3.41;100.00;95633.44;4952493;28;20058;-75
2022/12/26 01:17:30;;;;;;;2.83;1.70;;;;;;;3.21;100.00;95634.47;4952820;28;20043;-75
2022/12/26 01:19:56;;;;;;;2.38;1.63;;;;;;;3.15;100.00;95630.16;4952970;28;20050;-75
2022/12/26 01:22:23;;;;;;;3.33;1.80;;;;;;;2.95;100.00;95636.38;4952946;28;20411;-75
2022/12/26 01:24:53;;;;;;;4.28;2.10;;;;;;;2.83;100.00;95632.94;4944881;29;20112;-75
2022/12/26 01:27:18;;;;;;;4.00;1.77;;;;;;;2.71;100.00;95621.66;4947858;28;20043;-75
2022/12/26 01:29:44;;;;;;;3.83;1.80;;;;;;;2.81;100.00;95629.75;4954225;28;20051;-75
2022/12/26 01:32:09;;;;;;;3.78;1.85;;;;;;;2.68;100.00;95637.69;4952839;28;20043;-75
2022/12/26 01:34:35;;;;;;;3.65;1.70;;;;;;;2.70;100.00;95638.25;4958703;28;20047;-74
2022/12/26 01:37:00;;;;;;;4.22;2.00;;;;;;;2.64;100.00;95649.53;4945929;28;20047;-75
2022/12/26 01:39:26;;;;;;;3.97;2.13;;;;;;;2.54;100.00;95645.63;4953964;28;20050;-75
2022/12/26 01:41:51;;;;;;;4.93;2.20;;;;;;;2.45;100.00;95646.91;4952677;28;20050;-74
2022/12/26 01:44:55;;;;;;;6.20;2.30;;;;;;;2.37;100.00;95644.56;4947979;28;20130;-75
2022/12/26 01:47:23;;;;;;;3.13;1.77;;;;;;;2.34;100.00;95645.00;4941932;28;20514;-75
2022/12/26 01:49:53;;;;;;;4.05;1.92;;;;;;;2.29;100.00;95647.47;4952556;28;20039;-75
2022/12/26 01:52:35;;;;;;;5.15;2.17;;;;;;;2.31;100.00;95653.22;4952102;28;20585;-75
2022/12/26 01:55:03;;;;;;;2.92;1.73;;;;;;;2.22;100.00;95653.50;4945844;29;20075;-75
2022/12/26 01:57:38;;;;;;;4.35;1.90;;;;;;;2.18;100.00;95651.53;4948804;28;20032;-75
2022/12/26 02:00:06;;;;;;;4.13;2.15;;;;;;;2.11;100.00;95651.56;4953823;28;20059;-75
2022/12/26 02:05:32;;;;;;;3.42;1.98;;;;;;;2.09;100.00;95664.00;4951549;28;20067;-75
2022/12/26 02:05:33;;;;;;;3.45;2.00;;;;;;;2.06;100.00;95664.41;4953224;29;20457;-75
2022/12/26 02:08:05;;;;;;;4.72;2.25;;;;;;;1.98;100.00;95662.06;4952144;28;20066;-75
2022/12/26 02:10:35;;;;;;;6.30;2.55;;;;;;;1.87;100.00;95666.94;4949115;28;20047;-75
2022/12/26 02:13:01;;;;;;;6.47;2.45;;;;;;;1.79;100.00;95667.19;4950811;29;20114;-74
2022/12/26 02:15:27;;;;;;;4.75;2.20;;;;;;;1.77;100.00;95661.41;4952845;28;20046;-75
2022/12/26 02:17:52;;;;;;;5.63;2.30;;;;;;;1.79;100.00;95664.59;4958335;28;20039;-75
2022/12/26 02:20:21;;;;;;;4.28;2.08;;;;;;;1.77;100.00;95660.59;4947418;29;20154;-75
2022/12/26 02:22:58;;;;;;;6.22;2.28;;;;;;;1.83;100.00;95655.38;4952159;28;20039;-75
2022/12/26 02:25:38;;;;;;;3.88;1.98;;;;;;;1.73;100.00;95644.69;4950742;29;20472;-74
2022/12/26 02:28:09;;;;;;;4.75;2.33;;;;;;;1.65;100.00;95648.34;4945590;29;20122;-75
2022/12/26 02:31:17;;;;;;;5.30;2.15;;;;;;;1.66;100.00;95643.94;4952909;28;20051;-75
2022/12/26 02:33:50;;;;;;;6.35;2.33;;;;;;;1.56;100.00;95646.97;4954662;28;20497;-74
2022/12/26 02:36:37;;;;;;;6.10;2.70;;;;;;;1.48;100.00;95642.84;4940149;28;20067;-75
2022/12/26 02:39:19;;;;;;;7.88;2.38;;;;;;;1.49;100.00;95643.63;4950460;29;20046;-74
2022/12/26 02:41:53;;;;;;;4.72;2.38;;;;;;;1.48;100.00;95648.03;4951384;28;20046;-74
2022/12/26 02:47:18;;;;;;;5.85;2.17;;;;;;;1.38;100.00;95642.50;4945408;28;20042;-75
2022/12/26 03:14:31;;;;;;;4.38;2.10;;;;;;;2.05;100.00;95636.84;4945072;28;20054;-75
2022/12/26 03:17:20;;;;;;;4.60;2.05;;;;;;;2.25;100.00;95624.50;4943623;29;20568;-75
2022/12/26 03:20:00;;;;;;;4.60;1.92;;;;;;;2.33;100.00;95633.84;4953085;28;20187;-75
2022/12/26 03:22:41;;;;;;;4.72;2.13;;;;;;;3.97;100.00;95632.22;4950597;28;20043;-75
2022/12/26 03:28:02;;;;;;;;;;;;;;;4.14;100.00;95636.78;4942314;29;20399;-74
2022/12/26 03:35:57;;;;;;;2.97;1.88;;;;;;;4.83;100.00;95636.22;4948107;28;19957;-75
2022/12/26 03:38:33;;;;;;;3.35;1.80;;;;;;;5.07;100.00;95638.75;4949542;28;20051;-75
2022/12/26 04:20:13;;;;;;;2.28;1.30;;;;;;;5.25;100.00;95641.19;4945213;28;20054;-75
2022/12/26 04:45:12;;;;;;;2.70;1.50;;;;;;;4.28;100.00;95648.59;4952588;28;20043;-74
2022/12/26 04:50:10;;;;;;;2.50;1.45;;;;;;;4.34;100.00;95658.09;4954953;28;20047;-74
2022/12/26 04:50:23;;;;;;;2.42;1.40;;;;;;;4.36;100.00;95667.50;4952654;29;20049;-75
2022/12/26 04:52:57;;;;;;;2.47;1.27;;;;;;;4.50;100.00;95661.06;4935816;29;20047;-75
2022/12/26 04:55:28;;;;;;;1.98;1.35;;;;;;;4.51;100.00;95667.84;4951952;29;20122;-74
2022/12/26 04:57:55;;;;;;;1.83;1.40;;;;;;;4.73;100.00;95669.91;4935036;28;20048;-74
2022/12/26 05:00:23;;;;;;;2.03;1.55;;;;;;;4.26;100.00;95655.81;4956667;28;20077;-74
2022/12/26 05:11:18;;;;;;;2.55;1.50;;;;;;;4.54;100.00;95656.97;4950454;29;20447;-75
2022/12/26 05:13:44;;;;;;;3.03;1.50;;;;;;;4.62;100.00;95659.22;4957804;28;20043;-75
2022/12/26 05:29:56;;;;;;;2.58;1.50;;;;;;;5.22;100.00;95672.97;4951395;28;20036;-75
2022/12/26 05:35:06;;;;;;;1.80;1.48;;;;;;;4.94;100.00;95690.16;4948468;29;20567;-75
2022/12/26 05:37:32;;;;;;;1.98;1.40;;;;;;;4.97;100.00;95687.09;4942740;28;20039;-74
2022/12/26 05:39:57;;;;;;;2.45;1.50;;;;;;;4.85;100.00;95691.53;4954002;28;20047;-74
2022/12/26 05:42:23;;;;;;;3.72;1.65;;;;;;;5.19;100.00;95697.72;4955819;28;20090;-75
2022/12/26 05:44:48;;;;;;;2.75;1.65;;;;;;;5.11;100.00;95694.66;4944703;28;20046;-74
2022/12/26 05:47:14;;;;;;;2.83;1.70;;;;;;;5.03;100.00;95696.59;4935232;29;20051;-75
2022/12/26 05:49:39;;;;;;;2.20;1.42;;;;;;;5.09;100.00;95699.34;4948727;28;20047;-75
2022/12/26 05:52:05;;;;;;;3.10;1.73;;;;;;;4.98;100.00;95688.66;4952387;28;20039;-74
2022/12/26 05:54:30;;;;;;;1.58;1.40;;;;;;;5.03;100.00;95701.81;4952437;29;20650;-74
2022/12/26 05:56:56;;;;;;;2.95;1.60;;;;;;;5.17;100.00;95701.56;4958732;28;20034;-74
2022/12/26 05:59:21;;;;;;;2.45;1.50;;;;;;;5.20;100.00;95695.88;4952918;28;20043;-74
2022/12/26 06:01:47;;;;;;;2.30;1.35;;;;;;;5.19;100.00;95695.09;4952520;28;20039;-75
2022/12/26 06:04:13;;;;;;;4.35;1.55;;;;;;;5.31;100.00;95702.91;4953623;28;20101;-75
2022/12/26 06:06:39;;;;;;;2.28;1.50;;;;;;;5.41;100.00;95698.91;4950036;28;20047;-74
2022/12/26 06:09:04;;;;;;;2.50;1.70;;;;;;;5.64;100.00;95701.44;4952435;29;20043;-74
2022/12/26 06:11:30;;;;;;;2.85;1.38;;;;;;;5.45;100.00;95693.00;4956454;28;20489;-74
2022/12/26 06:13:56;;;;;;;3.88;2.10;;;;;;;5.50;100.00;95697.50;4952238;28;20501;-73
2022/12/26 06:16:21;;;;;;;3.13;1.60;;;;;;;5.56;100.00;95688.78;4948012;28;20048;-74
2022/12/26 06:18:48;;;;;;;3.72;1.50;;;;;;;5.52;100.00;95700.69;4946007;28;20598;-75
2022/12/26 06:21:16;;;;;;;2.58;1.70;;;;;;;5.58;100.00;95685.94;4948806;29;20073;-74
2022/12/26 06:23:42;;;;;;;2.60;1.67;;;;;;;5.58;100.00;95697.16;4953389;28;20074;-74
2022/12/26 06:26:09;;;;;;;2.10;1.50;;;;;;;5.50;100.00;95689.69;4955487;28;20050;-74
2022/12/26 06:28:35;;;;;;;2.53;1.60;;;;;;;5.51;100.00;95691.28;4945574;28;20055;-74
2022/12/26 06:31:08;;;;;;;3.22;1.52;;;;;;;5.65;100.00;95692.59;4958114;28;20043;-74
2022/12/26 06:33:34;;;;;;;2.92;1.70;;;;;;;5.58;100.00;95691.94;4953915;28;20058;-74
2022/12/26 06:36:14;;;;;;;3.25;1.50;;;;;;;5.52;100.00;95692.88;4951640;28;20071;-74
2022/12/26 06:38:40;;;;;;;3.35;1.42;;;;;;;5.63;100.00;95686.81;4955086;28;20043;-75
2022/12/26 06:41:07;;;;;;;3.00;1.65;;;;;;;5.57;100.00;95692.94;4951969;28;20535;-74
2022/12/26 06:43:33;;;;;;;2.38;1.60;;;;;;;5.55;100.00;95690.56;4952850;28;20043;-74
2022/12/26 06:46:01;;;;;;;3.35;1.70;;;;;;;5.48;100.00;95676.88;4947241;28;20043;-74
2022/12/26 06:48:27;;;;;;;2.40;1.52;;;;;;;5.46;100.00;95672.91;4947157;28;20044;-74
2022/12/26 06:50:53;;;;;;;6.72;1.70;;;;;;;5.54;100.00;95664.69;4940979;29;20043;-74
2022/12/26 06:53:23;;;;;;;2.28;1.60;;;;;;;5.66;100.00;95652.41;4949424;28;20061;-74
2022/12/26 06:55:50;;;;;;;2.97;1.70;;;;;;;5.77;100.00;95660.41;4950427;28;20081;-74
2022/12/26 06:58:16;;;;;;;3.10;1.50;;;;;;;5.71;100.00;95664.75;4945645;28;20047;-74
2022/12/26 07:00:42;;;;;;;4.22;1.98;;;;;;;5.80;100.00;95665.16;4950868;29;20039;-74
2022/12/26 07:03:09;;;;;;;3.58;1.73;;;;;;;5.85;100.00;95657.44;4952771;28;20054;-74
2022/12/26 07:05:36;;;;;;;3.53;1.70;;;;;;;5.90;100.00;95673.16;4950582;28;20059;-74
2022/12/26 07:08:02;;;;;;;3.50;1.90;;;;;;;6.00;100.00;95678.59;4943994;28;20121;-74
2022/12/26 07:10:27;;;;;;;2.65;1.52;;;;;;;6.06;100.00;95682.06;4950125;28;20506;-74
2022/12/26 07:12:53;;;;;;;3.47;1.77;;;;;;;6.09;100.00;95680.81;4952347;28;20043;-75
2022/12/26 07:15:18;;;;;;;3.47;1.80;;;;;;;6.03;100.00;95677.34;4949336;28;20066;-74
2022/12/26 07:17:44;;;;;;;3.35;1.75;;;;;;;6.09;100.00;95675.59;4951971;29;20078;-75
2022/12/26 07:20:10;;;;;;;2.65;1.60;;;;;;;6.05;100.00;95670.06;4945576;28;20149;-74
2022/12/26 07:22:36;;;;;;;3.35;1.70;;;;;;;5.99;100.00;95671.81;4954082;28;20062;-74
2022/12/26 07:25:01;;;;;;;3.35;1.90;;;;;;;5.83;100.00;95656.84;4950833;28;20039;-74
2022/12/26 07:27:27;;;;;;;2.83;1.63;;;;;;;5.89;100.00;95656.72;4948255;28;20551;-75
2022/12/26 07:29:52;;;;;;;3.00;1.80;;;;;;;6.04;100.00;95669.25;4940134;29;20047;-75
2022/12/26 07:32:18;;;;;;;4.68;1.98;;;;;;;6.02;100.00;95676.56;4951949;28;20055;-75
2022/12/26 07:34:43;;;;;;;5.20;1.90;;;;;;;5.92;100.00;95676.34;4950981;28;20059;-74
2022/12/26 07:37:09;;;;;;;4.32;2.10;;;;;;;6.06;100.00;95682.91;4947350;28;20426;-75
2022/12/26 07:39:36;;;;;;;3.22;1.80;;;;;;;6.01;100.00;95680.19;4949935;28;20107;-75
2022/12/26 07:42:05;;;;;;;4.28;2.42;;;;;;;5.87;100.00;95671.03;4951335;28;20497;-74
2022/12/26 07:44:31;;;;;;;3.03;1.80;;;;;;;5.76;100.00;95682.31;4938875;28;20055;-75
2022/12/26 07:46:59;;;;;;;4.82;2.20;;;;;;;5.73;100.00;95679.16;4951972;28;20047;-74
2022/12/26 07:49:24;;;;;;;3.67;1.90;;;;;;;5.96;100.00;95685.31;4943308;28;20059;-74
2022/12/26 07:51:51;;;;;;;4.07;1.92;;;;;;;5.97;100.00;95686.91;4951945;28;20043;-74
2022/12/26 07:54:17;;;;;;;4.28;2.33;;;;;;;5.94;100.00;95689.97;4950659;28;20071;-74
2022/12/26 07:56:43;;;;;;;3.88;2.03;;;;;;;6.04;100.00;95679.72;4950985;28;20044;-75
2022/12/26 07:59:13;;;;;;;6.32;2.38;;;;;;;6.04;100.00;95695.38;4933118;29;20058;-74
2022/12/26 08:01:38;;;;;;;5.15;2.28;;;;;;;5.99;100.00;95695.31;4948902;29;20496;-74
2022/12/26 08:04:04;;;;;;;5.00;2.38;;;;;;;6.01;100.00;95701.09;4951052;28;20055;-75
2022/12/26 08:06:30;;;;;;;4.47;2.38;;;;;;;6.09;100.00;95696.50;4949799;28;20093;-74
2022/12/26 08:08:55;;;;;;;4.47;2.22;;;;;;;6.16;100.00;95704.97;4950564;28;20182;-74
2022/12/26 08:11:23;;;;;;;4.95;2.40;;;;;;;6.10;100.00;95695.47;4952102;28;20055;-74
2022/12/26 08:13:49;;;;;;;6.65;2.60;;;;;;;6.23;100.00;95697.78;4950448;28;20058;-75
2022/12/26 08:16:15;;;;;;;4.32;2.38;;;;;;;6.35;100.00;95693.28;4944951;28;20055;-75
2022/12/26 08:18:41;;;;;;;5.07;2.25;;;;;;;6.52;100.00;95692.47;4952503;28;20054;-75
2022/12/26 08:21:06;;;;;;;6.20;2.40;;;;;;;6.59;100.00;95690.50;4952770;29;20043;-74
2022/12/26 08:23:33;;;;;;;7.45;2.40;;;;;;;6.59;100.00;95693.91;4955602;28;20074;-75
2022/12/26 08:26:03;;;;;;;3.88;1.98;;;;;;;6.82;100.00;95683.50;4952505;28;20453;-75
2022/12/26 08:28:29;;;;;;;8.70;2.80;;;;;;;6.89;100.00;95684.13;4954244;28;20084;-75
2022/12/26 08:30:54;;;;;;;7.40;2.65;;;;;;;6.95;100.00;95680.53;4955237;28;20493;-74
2022/12/26 08:33:20;;;;;;;5.35;2.50;;;;;;;7.30;100.00;95684.63;4955413;28;20051;-74
2022/12/26 08:35:45;;;;;;;5.28;2.70;;;;;;;7.33;100.00;95683.38;4953438;28;20054;-75
2022/12/26 08:38:11;;;;;;;6.75;2.67;;;;;;;7.50;100.00;95675.41;4955547;28;20058;-74
2022/12/26 08:40:36;;;;;;;6.45;2.70;;;;;;;7.57;100.00;95683.88;4952819;28;20051;-75
2022/12/26 08:43:02;;;;;;;7.20;2.75;;;;;;;7.68;100.00;95677.72;4946744;28;20048;-74
2022/12/26 08:45:28;;;;;;;6.05;2.72;;;;;;;7.75;100.00;95678.31;4945142;29;20051;-74
2022/12/26 08:47:54;;;;;;;5.78;2.47;;;;;;;7.86;100.00;95670.53;4957137;28;20058;-74
2022/12/26 08:50:20;;;;;;;8.18;3.17;;;;;;;7.94;100.00;95677.97;4943955;29;20445;-75
2022/12/26 08:52:45;;;;;;;5.75;2.83;;;;;;;8.09;100.00;95664.22;4954909;28;20119;-74
2022/12/26 08:55:11;;;;;;;7.55;2.88;;;;;;;8.27;100.00;95676.94;4952849;28;20138;-75
2022/12/26 08:57:36;;;;;;;6.53;2.80;;;;;;;8.25;100.00;95673.00;4950927;28;20047;-74
2022/12/26 09:00:03;;;;;;;5.78;2.70;;;;;;;8.37;100.00;95681.47;4948746;29;20516;-74
2022/12/26 09:02:29;;;;;;;6.10;2.80;;;;;;;8.44;100.00;95676.84;4952911;28;20042;-74
2022/12/26 09:04:55;;;;;;;7.13;3.30;;;;;;;8.48;100.00;95667.44;4952242;28;20058;-75
2022/12/26 09:07:20;;;;;;;6.45;2.60;;;;;;;8.56;100.00;95668.00;4950883;28;20608;-74
2022/12/26 09:09:47;;;;;;;5.45;2.63;;;;;;;8.70;100.00;95671.00;4954027;29;20054;-75
2022/12/26 09:12:12;;;;;;;4.43;2.45;;;;;;;8.84;100.00;95670.28;4954903;28;20059;-75
2022/12/26 09:14:38;;;;;;;4.43;2.40;;;;;;;8.88;100.00;95669.75;4953258;28;20086;-75
2022/12/26 09:17:03;;;;;;;8.38;2.70;;;;;;;8.98;100.00;95664.59;4952737;28;20066;-75
2022/12/26 09:19:31;;;;;;;5.55;2.45;;;;;;;9.07;100.00;95668.31;4949570;28;20085;-74
2022/12/26 09:24:41;;;;;;;6.00;2.30;;;;;;;9.32;100.00;95670.25;4954277;29;20059;-75
2022/12/26 09:27:07;;;;;;;7.22;2.60;;;;;;;9.43;100.00;95655.31;4951552;28;20536;-75
2022/12/26 09:29:33;;;;;;;4.88;2.50;;;;;;;9.53;100.00;95660.59;4954088;28;20047;-74
2022/12/26 09:31:59;;;;;;;4.90;2.67;;;;;;;9.65;100.00;95668.25;4953776;28;20122;-74
2022/12/26 09:34:24;;;;;;;5.00;2.55;;;;;;;9.74;100.00;95667.75;4951681;28;20458;-75
2022/12/26 09:36:50;;;;;;;6.78;2.35;;;;;;;9.82;100.00;95662.75;4954396;28;20390;-74
2022/12/26 09:39:15;;;;;;;4.53;2.20;;;;;;;10.02;100.00;95666.47;4953040;28;20154;-75
2022/12/26 09:42:22;;;;;;;5.20;2.53;;;;;;;10.20;100.00;95660.72;4953925;28;20063;-75
2022/12/26 09:44:59;;;;;;;11.60;2.88;;;;;;;10.76;100.00;95648.59;4931153;29;20195;-75
2022/12/26 09:47:42;;;;;;;14.77;6.75;;;;;;;11.29;98.27;95660.53;4954913;28;20059;-75
2022/12/26 09:50:08;;;;;;;4.60;2.50;;;;;;;11.59;94.11;95665.69;4947063;28;20055;-75
2022/12/26 09:52:46;;;;;;;3.90;2.08;;;;;;;11.86;92.32;95659.19;4954183;28;20472;-75
2022/12/26 09:55:34;;;;;;;4.45;2.42;;;;;;;11.96;90.45;95656.53;4953342;28;20055;-75
2022/12/26 09:58:07;;;;;;;5.35;2.20;;;;;;;12.00;83.68;95663.91;4948130;29;20135;-75
2022/12/26 10:00:42;;;;;;;4.20;2.30;;;;;;;12.38;83.10;95664.13;4946912;28;20521;-75
2022/12/26 10:03:09;;;;;;;4.93;2.30;;;;;;;12.44;81.00;95665.66;4953978;28;20132;-74
2022/12/26 10:05:48;;;;;;;5.50;2.47;;;;;;;12.68;80.33;95667.59;4951040;28;20077;-75
2022/12/26 10:08:35;;;;;;;5.32;2.60;;;;;;;12.77;78.63;95661.44;4954170;28;20134;-75
2022/12/26 10:11:03;;;;;;;6.03;2.65;;;;;;;13.43;74.31;95661.78;4952041;28;20043;-75
2022/12/26 10:13:39;;;;;;;5.43;2.80;;;;;;;13.33;76.18;95652.09;4943437;28;20070;-75
2022/12/26 10:16:15;;;;;;;4.07;2.40;;;;;;;13.63;72.72;95650.19;4950186;28;20051;-75
2022/12/26 10:18:58;;;;;;;3.97;2.40;;;;;;;13.51;74.83;95652.44;4948494;28;20741;-75
2022/12/26 10:22:05;;;;;;;5.25;2.30;;;;;;;13.75;71.43;95635.72;4951931;28;20070;-75
2022/12/26 10:24:36;;;;;;;9.02;3.22;;;;;;;13.59;71.49;95643.88;4930831;29;20059;-73
2022/12/26 10:27:12;;;;;;;5.80;2.95;;;;;;;14.03;71.47;95637.41;4949113;28;20059;-74
2022/12/26 10:29:42;;;;;;;4.57;2.33;;;;;;;13.85;69.72;95630.31;4942063;28;20056;-74
2022/12/26 10:32:20;;;;;;;4.65;2.35;;;;;;;14.41;68.84;95630.50;4959792;28;20075;-74
2022/12/26 10:34:48;;;;;;;4.60;2.15;;;;;;;15.52;60.73;95630.56;4953628;28;20057;-74
2022/12/26 10:37:47;;;;;;;3.58;2.00;;;;;;;15.07;63.46;95626.69;4954102;28;20062;-74
2022/12/26 10:40:39;;;;;;;5.88;2.15;;;;;;;15.33;62.37;95628.84;4926761;29;20394;-75
2022/12/26 10:43:29;;;;;;;4.55;2.35;;;;;;;14.91;64.31;95617.44;4950480;28;20263;-74
2022/12/26 10:46:31;;;;;;;3.45;2.10;;;;;;;14.34;68.67;95621.06;4953926;28;20078;-74
2022/12/26 10:48:58;;;;;;;5.82;2.20;;;;;;;14.25;66.64;95622.00;4936590;28;20048;-74
2022/12/26 10:51:24;;;;;;;5.18;2.10;;;;;;;14.52;65.92;95621.28;4946660;29;20130;-74
2022/12/26 10:53:52;;;;;;;2.72;1.95;;;;;;;14.01;68.29;95629.00;4944828;29;20513;-74
2022/12/26 10:56:20;;;;;;;5.95;2.20;;;;;;;13.59;72.43;95632.50;4950553;28;20406;-74
2022/12/26 10:58:57;;;;;;;4.78;2.10;;;;;;;13.15;72.56;95626.41;4963218;28;20055;-74
2022/12/26 11:01:38;;;;;;;4.18;2.30;;;;;;;12.95;75.71;95620.28;4957812;28;20062;-73
2022/12/26 11:04:15;;;;;;;3.90;2.38;;;;;;;13.02;77.26;95619.19;4952239;29;20055;-75
2022/12/26 11:06:42;;;;;;;3.40;1.95;;;;;;;12.90;76.28;95623.00;4945203;28;20051;-74
2022/12/26 11:09:22;;;;;;;3.38;1.90;;;;;;;12.81;80.87;95619.38;4952451;28;20050;-74
2022/12/26 11:11:50;;;;;;;4.85;1.95;;;;;;;12.58;87.54;95621.72;4952366;28;20592;-75
2022/12/26 11:14:27;;;;;;;4.90;1.90;;;;;;;12.54;86.86;95620.72;4956888;28;20063;-74
2022/12/26 11:16:54;;;;;;;3.22;1.90;;;;;;;12.52;86.49;95612.28;4949905;29;20059;-74
2022/12/26 11:19:32;;;;;;;3.03;1.80;;;;;;;12.55;80.53;95622.28;4947539;28;20063;-74
2022/12/26 11:22:20;;;;;;;3.85;2.08;;;;;;;12.54;82.23;95620.72;4950121;28;20047;-74
2022/12/26 11:25:16;;;;;;;4.05;2.08;;;;;;;12.39;91.84;95618.22;4952011;28;20494;-74
2022/12/26 11:27:45;;;;;;;3.55;1.92;;;;;;;12.32;83.82;95623.03;4938079;28;20059;-74
2022/12/26 11:30:29;;;;;;;4.82;1.83;;;;;;;12.22;88.02;95619.41;4950968;28;20069;-74
2022/12/26 11:33:23;;;;;;;3.03;1.90;;;;;;;11.94;97.42;95623.59;4946337;29;20059;-75
2022/12/26 11:35:58;;;;;;;3.80;1.95;;;;;;;12.02;89.20;95624.84;4932751;28;20302;-75
2022/12/26 11:38:34;;;;;;;;;;;;;;;12.04;95.32;95633.25;4949493;29;20134;-75
2022/12/26 11:43:48;;;;;;;5.22;2.65;;;;;;;11.88;92.75;95622.81;4951933;29;20066;-74
2022/12/26 11:46:14;;;;;;;4.68;2.47;;;;;;;11.82;99.42;95626.53;4935724;28;20051;-74
2022/12/26 11:48:40;;;;;;;6.57;2.45;;;;;;;11.85;93.18;95626.00;4945291;28;20044;-75
2022/12/26 11:51:08;;;;;;;8.55;2.50;;;;;;;11.77;97.46;95626.56;4956143;28;20091;-74
2022/12/26 11:53:33;;;;;;;5.65;2.60;;;;;;;11.51;100.00;95631.22;4956756;28;20051;-74
2022/12/26 11:56:02;;;;;;;7.75;2.30;;;;;;;11.72;92.52;95631.88;4966114;28;20045;-74
2022/12/26 11:58:29;;;;;;;4.53;2.40;;;;;;;11.59;100.00;95644.59;4953490;28;20047;-75
2022/12/26 12:00:58;;;;;;;5.00;2.42;;;;;;;11.42;100.00;95639.69;4958739;28;20098;-74
2022/12/26 12:03:38;;;;;;;5.30;2.50;;;;;;;11.48;98.98;95648.34;4956388;28;20047;-75
2022/12/26 12:06:12;;;;;;;4.28;2.13;;;;;;;11.67;96.03;95645.09;4939266;29;20059;-74
2022/12/26 12:08:57;;;;;;;;;;;;;;;11.90;90.55;95649.69;4946554;28;20047;-74
2022/12/26 12:11:47;;;;;;;6.47;2.38;;;;;;;11.89;92.54;95658.66;4959432;28;19923;-75
2022/12/26 12:14:43;;;;;;;4.03;2.03;;;;;;;11.88;93.73;95662.38;4955170;29;20057;-74
2022/12/26 12:17:17;;;;;;;3.42;1.90;;;;;;;11.98;91.38;95673.94;4953378;28;20051;-74
2022/12/26 12:19:52;;;;;;;;;;;;;;;12.11;93.04;95687.28;4954044;28;20066;-75
2022/12/26 12:22:32;;;;;;;4.75;2.10;;;;;;;11.96;99.38;95690.81;4958129;29;19978;-74
2022/12/26 12:25:22;;;;;;;3.90;1.85;;;;;;;11.86;100.00;95711.94;4962224;28;20117;-74
2022/12/26 12:28:18;;;;;;;6.00;2.38;;;;;;;11.45;100.00;95717.41;4958487;28;20050;-74
2022/12/26 12:31:04;;;;;;;5.90;2.70;;;;;;;11.19;100.00;95709.59;4958192;28;20055;-73
2022/12/26 12:34:00;;;;;;;4.30;2.60;;;;;;;11.02;100.00;95730.16;4958811;28;20074;-74
2022/12/26 12:36:42;;;;;;;4.22;2.30;;;;;;;10.94;100.00;95733.34;4953506;28;20051;-74
2022/12/26 12:39:15;;;;;;;5.72;2.70;;;;;;;10.67;100.00;95723.88;4964067;28;20063;-74
2022/12/26 12:42:07;;;;;;;5.78;2.60;;;;;;;10.29;100.00;95728.59;4958400;28;20093;-74
2022/12/26 12:44:41;;;;;;;6.25;2.65;;;;;;;10.19;100.00;95719.63;4951884;28;20098;-74
2022/12/26 12:47:36;;;;;;;8.93;2.63;;;;;;;10.01;100.00;95726.19;4958044;28;20106;-74
2022/12/26 12:50:34;;;;;;;6.97;3.25;;;;;;;9.81;100.00;95742.69;4948065;28;20043;-75
2022/12/26 12:53:17;;;;;;;6.97;3.08;;;;;;;9.67;100.00;95744.22;4954740;28;20090;-75
2022/12/26 12:55:57;;;;;;;4.95;2.88;;;;;;;9.59;100.00;95744.69;4960857;28;20051;-75
2022/12/26 12:58:39;;;;;;;8.65;3.33;;;;;;;9.48;100.00;95757.78;4955994;29;20449;-74
2022/12/26 13:01:26;;;;;;;6.93;3.15;;;;;;;9.45;100.00;95768.81;4957875;28;20058;-74
2022/12/26 13:03:55;;;;;;;9.38;3.85;;;;;;;9.33;100.00;95776.09;4936868;28;20044;-74
2022/12/26 13:06:35;;;;;;;8.45;3.40;;;;;;;9.24;100.00;95778.41;4950918;29;20102;-74
2022/12/26 13:09:14;;;;;;;6.38;3.13;;;;;;;9.15;100.00;95780.72;4954510;29;20054;-74
2022/12/26 13:11:48;;;;;;;11.27;3.47;;;;;;;9.08;100.00;95779.34;4953507;29;20047;-75
2022/12/26 13:14:46;;;;;;;8.32;3.65;;;;;;;9.06;100.00;95774.34;4940977;28;20498;-75
2022/12/26 13:17:20;;;;;;;7.55;3.67;;;;;;;9.03;100.00;95767.00;4947435;29;20063;-74
2022/12/26 13:19:59;;;;;;;9.60;3.40;;;;;;;8.94;100.00;95768.50;4943893;28;20051;-75
2022/12/26 13:24:22;;;;;;;9.63;3.95;;;;;;;8.89;100.00;95771.09;4954179;28;20062;-74
2022/12/26 13:25:18;;;;;;;9.27;4.13;;;;;;;8.82;100.00;95766.84;4952941;29;20179;-74
2022/12/26 13:27:47;;;;;;;14.65;4.07;;;;;;;8.83;100.00;95773.69;4950395;28;20047;-74
2022/12/26 13:30:15;;;;;;;7.72;3.47;;;;;;;8.75;100.00;95782.03;4958570;28;20062;-75
2022/12/26 13:32:41;;;;;;;8.00;4.13;;;;;;;8.79;100.00;95788.34;4955223;28;20043;-74
2022/12/26 13:35:45;;;;;;;8.43;4.05;;;;;;;8.70;100.00;95789.06;4956696;28;20062;-74
2022/12/26 13:38:10;;;;;;;11.43;4.32;;;;;;;8.72;100.00;95793.03;4939961;28;20054;-74
2022/12/26 13:40:36;;;;;;;13.20;4.25;;;;;;;8.67;100.00;95798.22;4955287;28;20047;-74
2022/12/26 13:45:53;;;;;;;9.18;3.72;;;;;;;8.49;100.00;95794.91;4939480;28;20043;-74
2022/12/26 13:48:25;;;;;;;8.50;3.90;;;;;;;8.45;100.00;95801.69;4953910;28;20054;-74
2022/12/26 13:50:52;;;;;;;10.32;4.13;;;;;;;8.39;100.00;95794.78;4950755;28;20035;-74
2022/12/26 13:53:23;;;;;;;10.38;3.90;;;;;;;8.42;100.00;95789.06;4953834;28;20047;-75
2022/12/26 13:56:22;;;;;;;10.68;3.95;;;;;;;8.38;100.00;95797.66;4955427;28;20457;-74
2022/12/26 13:58:56;;;;;;;7.85;4.28;;;;;;;8.38;100.00;95802.91;4926565;29;20063;-75
2022/12/26 14:02:17;;;;;;;13.27;5.30;;;;;;;8.34;100.00;95799.97;4955433;28;20130;-75
2022/12/26 14:05:08;;;;;;;11.75;4.53;;;;;;;8.35;100.00;95798.94;4955097;28;20046;-75
2022/12/26 14:07:52;;;;;;;12.40;4.25;;;;;;;8.24;100.00;95799.88;4939637;28;20513;-75